sensor_id;sensor_type;location;lat;lon;timestamp;pressure;altitude;pressure_sealevel;temperature;humidity
58467;BME280;44255;49.244;7.726;2022-09-09T03:32:49;97896.19;;;10.60;71.86
58467;BME280;44255;49.244;7.726;2022-09-09T03:35:14;97890.03;;;10.73;71.21
58467;BME280;44255;49.244;7.726;2022-09-09T03:37:40;97892.31;;;10.52;71.87
58467;BME280;44255;49.244;7.726;2022-09-09T03:40:07;97886.34;;;10.61;71.93
58467;BME280;44255;49.244;7.726;2022-09-09T03:42:34;97902.28;;;10.35;72.97
58467;BME280;44255;49.244;7.726;2022-09-09T03:45:02;97896.31;;;10.59;71.90
58467;BME280;44255;49.244;7.726;2022-09-09T03:47:28;97905.91;;;10.48;72.76
58467;BME280;44255;49.244;7.726;2022-09-09T03:49:54;97904.53;;;10.56;72.50
58467;BME280;44255;49.244;7.726;2022-09-09T03:52:19;97902.25;;;10.64;72.25
58467;BME280;44255;49.244;7.726;2022-09-09T03:54:46;97907.22;;;10.56;72.90
58467;BME280;44255;49.244;7.726;2022-09-09T03:57:12;97898.44;;;10.81;71.80
58467;BME280;44255;49.244;7.726;2022-09-09T03:59:41;97905.72;;;10.52;72.80
58467;BME280;44255;49.244;7.726;2022-09-09T04:02:06;97915.19;;;10.43;73.22
58467;BME280;44255;49.244;7.726;2022-09-09T04:04:32;97897.06;;;10.61;72.61
58467;BME280;44255;49.244;7.726;2022-09-09T04:06:57;97892.91;;;10.84;71.65
58467;BME280;44255;49.244;7.726;2022-09-09T04:09:22;97898.38;;;10.68;71.85
58467;BME280;44255;49.244;7.726;2022-09-09T04:11:48;97911.00;;;10.81;71.47
58467;BME280;44255;49.244;7.726;2022-09-09T04:14:14;97912.00;;;10.65;72.33
58467;BME280;44255;49.244;7.726;2022-09-09T04:16:39;97910.69;;;10.58;72.50
58467;BME280;44255;49.244;7.726;2022-09-09T04:19:08;97906.91;;;10.75;71.92
58467;BME280;44255;49.244;7.726;2022-09-09T04:21:33;97906.81;;;10.76;72.29
58467;BME280;44255;49.244;7.726;2022-09-09T04:23:58;97918.75;;;10.58;73.36
58467;BME280;44255;49.244;7.726;2022-09-09T04:26:24;97910.34;;;10.77;72.88
58467;BME280;44255;49.244;7.726;2022-09-09T04:28:49;97906.25;;;10.57;73.64
58467;BME280;44255;49.244;7.726;2022-09-09T04:31:20;97912.75;;;10.67;73.65
58467;BME280;44255;49.244;7.726;2022-09-09T04:33:47;97911.75;;;10.83;72.95
58467;BME280;44255;49.244;7.726;2022-09-09T04:36:13;97917.19;;;10.96;72.13
58467;BME280;44255;49.244;7.726;2022-09-09T04:38:38;97916.88;;;11.28;70.65
58467;BME280;44255;49.244;7.726;2022-09-09T04:41:05;97915.72;;;11.04;71.87
58467;BME280;44255;49.244;7.726;2022-09-09T04:43:30;97922.59;;;11.09;72.15
58467;BME280;44255;49.244;7.726;2022-09-09T04:45:56;97916.66;;;11.31;71.47
58467;BME280;44255;49.244;7.726;2022-09-09T04:48:21;97916.19;;;11.11;72.69
58467;BME280;44255;49.244;7.726;2022-09-09T04:51:01;97919.91;;;11.36;72.51
58467;BME280;44255;49.244;7.726;2022-09-09T04:53:27;97923.50;;;11.22;73.18
58467;BME280;44255;49.244;7.726;2022-09-09T04:56:02;97921.41;;;11.27;73.25
58467;BME280;44255;49.244;7.726;2022-09-09T04:58:27;97920.31;;;11.30;72.83
58467;BME280;44255;49.244;7.726;2022-09-09T05:00:52;97918.41;;;11.04;74.14
58467;BME280;44255;49.244;7.726;2022-09-09T05:03:18;97916.63;;;11.18;73.46
58467;BME280;44255;49.244;7.726;2022-09-09T05:05:44;97915.97;;;11.14;73.36
58467;BME280;44255;49.244;7.726;2022-09-09T05:08:09;97916.84;;;11.15;73.86
58467;BME280;44255;49.244;7.726;2022-09-09T05:10:37;97913.00;;;11.19;73.53
58467;BME280;44255;49.244;7.726;2022-09-09T05:13:03;97921.25;;;11.16;73.47
58467;BME280;44255;49.244;7.726;2022-09-09T05:15:29;97916.81;;;11.02;73.95
58467;BME280;44255;49.244;7.726;2022-09-09T05:17:59;97922.97;;;11.17;73.85
58467;BME280;44255;49.244;7.726;2022-09-09T05:20:25;97923.75;;;11.32;72.93
58467;BME280;44255;49.244;7.726;2022-09-09T05:22:53;97923.16;;;11.41;72.42
58467;BME280;44255;49.244;7.726;2022-09-09T05:25:19;97926.63;;;11.16;74.02
58467;BME280;44255;49.244;7.726;2022-09-09T05:27:44;97933.47;;;11.47;72.57
58467;BME280;44255;49.244;7.726;2022-09-09T05:30:10;97929.03;;;11.33;73.51
58467;BME280;44255;49.244;7.726;2022-09-09T05:32:35;97932.75;;;11.18;74.27
58467;BME280;44255;49.244;7.726;2022-09-09T05:35:01;97931.28;;;11.27;73.51
58467;BME280;44255;49.244;7.726;2022-09-09T05:37:26;97937.69;;;11.24;73.55
58467;BME280;44255;49.244;7.726;2022-09-09T05:39:51;97936.72;;;11.25;74.00
58467;BME280;44255;49.244;7.726;2022-09-09T05:42:18;97938.19;;;11.44;73.76
58467;BME280;44255;49.244;7.726;2022-09-09T05:44:43;97942.03;;;11.40;74.22
58467;BME280;44255;49.244;7.726;2022-09-09T05:47:09;97952.09;;;11.63;73.55
58467;BME280;44255;49.244;7.726;2022-09-09T05:49:35;97945.00;;;11.88;72.43
58467;BME280;44255;49.244;7.726;2022-09-09T05:52:00;97955.22;;;11.96;72.75
58467;BME280;44255;49.244;7.726;2022-09-09T05:54:25;97953.97;;;12.02;72.59
58467;BME280;44255;49.244;7.726;2022-09-09T05:56:51;97950.31;;;12.03;72.45
58467;BME280;44255;49.244;7.726;2022-09-09T05:59:17;97961.06;;;12.16;72.41
58467;BME280;44255;49.244;7.726;2022-09-09T06:01:43;97961.28;;;12.00;73.39
58467;BME280;44255;49.244;7.726;2022-09-09T06:04:10;97950.31;;;12.16;73.21
58467;BME280;44255;49.244;7.726;2022-09-09T06:06:37;97958.03;;;12.33;72.14
58467;BME280;44255;49.244;7.726;2022-09-09T06:09:05;97949.41;;;12.41;71.55
58467;BME280;44255;49.244;7.726;2022-09-09T06:11:39;97959.56;;;12.25;72.50
58467;BME280;44255;49.244;7.726;2022-09-09T06:14:05;97960.00;;;12.82;70.67
58467;BME280;44255;49.244;7.726;2022-09-09T06:16:31;97964.34;;;13.09;69.86
58467;BME280;44255;49.244;7.726;2022-09-09T06:19:00;97970.78;;;13.19;69.70
58467;BME280;44255;49.244;7.726;2022-09-09T06:21:30;97965.38;;;13.19;70.66
58467;BME280;44255;49.244;7.726;2022-09-09T06:23:56;97963.69;;;13.29;70.82
58467;BME280;44255;49.244;7.726;2022-09-09T06:26:23;97959.34;;;13.40;69.98
58467;BME280;44255;49.244;7.726;2022-09-09T06:28:51;97959.69;;;13.35;70.55
58467;BME280;44255;49.244;7.726;2022-09-09T06:31:19;97960.34;;;13.39;70.79
58467;BME280;44255;49.244;7.726;2022-09-09T06:33:49;97954.66;;;13.30;71.21
58467;BME280;44255;49.244;7.726;2022-09-09T06:36:33;97952.72;;;13.32;72.44
58467;BME280;44255;49.244;7.726;2022-09-09T06:38:59;97953.47;;;13.34;72.05
58467;BME280;44255;49.244;7.726;2022-09-09T06:41:26;97955.97;;;13.49;71.83
58467;BME280;44255;49.244;7.726;2022-09-09T06:43:52;97951.19;;;13.53;72.74
58467;BME280;44255;49.244;7.726;2022-09-09T06:46:19;97950.56;;;13.85;71.74
58467;BME280;44255;49.244;7.726;2022-09-09T06:48:46;97950.06;;;13.91;71.07
58467;BME280;44255;49.244;7.726;2022-09-09T06:51:18;97950.16;;;13.78;72.45
58467;BME280;44255;49.244;7.726;2022-09-09T06:53:46;97941.78;;;14.05;71.03
58467;BME280;44255;49.244;7.726;2022-09-09T06:56:33;97948.81;;;14.19;70.45
58467;BME280;44255;49.244;7.726;2022-09-09T06:59:01;97946.00;;;14.10;71.08
58467;BME280;44255;49.244;7.726;2022-09-09T07:01:31;97944.88;;;14.01;72.34
58467;BME280;44255;49.244;7.726;2022-09-09T07:03:57;97952.72;;;14.15;72.55
58467;BME280;44255;49.244;7.726;2022-09-09T07:06:29;97948.31;;;14.03;73.13
58467;BME280;44255;49.244;7.726;2022-09-09T07:09:00;97953.47;;;14.29;72.71
58467;BME280;44255;49.244;7.726;2022-09-09T07:11:28;97955.19;;;14.30;72.92
58467;BME280;44255;49.244;7.726;2022-09-09T07:13:56;97956.44;;;14.37;72.26
58467;BME280;44255;49.244;7.726;2022-09-09T07:16:22;97953.59;;;14.39;72.43
58467;BME280;44255;49.244;7.726;2022-09-09T07:18:49;97940.97;;;14.28;74.63
58467;BME280;44255;49.244;7.726;2022-09-09T07:21:15;97971.38;;;13.83;77.05
58467;BME280;44255;49.244;7.726;2022-09-09T07:23:41;97964.69;;;14.00;76.99
58467;BME280;44255;49.244;7.726;2022-09-09T07:26:15;97966.88;;;13.95;76.34
58467;BME280;44255;49.244;7.726;2022-09-09T07:28:41;97960.38;;;13.97;75.82
58467;BME280;44255;49.244;7.726;2022-09-09T07:31:10;97962.03;;;14.11;75.53
58467;BME280;44255;49.244;7.726;2022-09-09T07:33:38;97956.44;;;14.37;74.49
58467;BME280;44255;49.244;7.726;2022-09-09T07:38:55;97956.72;;;15.12;72.22
58467;BME280;44255;49.244;7.726;2022-09-09T07:41:25;97964.78;;;15.24;71.29
58467;BME280;44255;49.244;7.726;2022-09-09T07:43:52;97954.59;;;15.27;71.74
58467;BME280;44255;49.244;7.726;2022-09-09T07:46:20;97958.00;;;14.97;74.32
58467;BME280;44255;49.244;7.726;2022-09-09T07:48:47;97963.13;;;15.00;72.93
58467;BME280;44255;49.244;7.726;2022-09-09T07:51:19;97961.41;;;14.99;71.92
58467;BME280;44255;49.244;7.726;2022-09-09T07:53:46;97964.75;;;14.57;75.00
58467;BME280;44255;49.244;7.726;2022-09-09T07:56:16;97965.59;;;14.57;74.54
58467;BME280;44255;49.244;7.726;2022-09-09T07:58:42;97966.31;;;14.25;75.65
58467;BME280;44255;49.244;7.726;2022-09-09T08:01:17;97975.66;;;14.32;77.05
58467;BME280;44255;49.244;7.726;2022-09-09T08:03:44;97980.31;;;14.19;77.63
58467;BME280;44255;49.244;7.726;2022-09-09T08:06:10;97988.31;;;14.55;75.67
58467;BME280;44255;49.244;7.726;2022-09-09T08:08:38;97981.94;;;14.56;75.38
58467;BME280;44255;49.244;7.726;2022-09-09T08:11:12;97981.66;;;14.82;73.73
58467;BME280;44255;49.244;7.726;2022-09-09T08:13:40;97982.50;;;15.05;73.37
58467;BME280;44255;49.244;7.726;2022-09-09T08:16:17;97983.16;;;14.52;72.47
58467;BME280;44255;49.244;7.726;2022-09-09T08:18:43;97977.25;;;14.92;73.40
58467;BME280;44255;49.244;7.726;2022-09-09T08:21:14;97982.44;;;15.28;72.47
58467;BME280;44255;49.244;7.726;2022-09-09T08:23:47;97980.31;;;14.99;74.13
58467;BME280;44255;49.244;7.726;2022-09-09T08:26:16;97980.44;;;15.41;71.33
58467;BME280;44255;49.244;7.726;2022-09-09T08:28:43;97983.28;;;15.40;72.20
58467;BME280;44255;49.244;7.726;2022-09-09T08:31:14;97992.91;;;15.21;72.37
58467;BME280;44255;49.244;7.726;2022-09-09T08:33:41;97989.00;;;15.14;72.09
58467;BME280;44255;49.244;7.726;2022-09-09T08:36:09;97989.72;;;15.16;70.74
58467;BME280;44255;49.244;7.726;2022-09-09T08:38:35;97992.84;;;15.44;70.71
58467;BME280;44255;49.244;7.726;2022-09-09T08:44:02;97998.00;;;14.92;71.52
58467;BME280;44255;49.244;7.726;2022-09-09T08:51:57;98002.56;;;15.35;70.60
58467;BME280;44255;49.244;7.726;2022-09-09T08:54:23;98005.19;;;15.25;70.44
58467;BME280;44255;49.244;7.726;2022-09-09T08:56:48;98002.00;;;15.64;69.22
58467;BME280;44255;49.244;7.726;2022-09-09T08:59:17;98004.53;;;15.66;69.66
58467;BME280;44255;49.244;7.726;2022-09-09T09:04:41;97997.81;;;15.60;67.66
58467;BME280;44255;49.244;7.726;2022-09-09T09:07:26;98003.22;;;15.60;68.58
58467;BME280;44255;49.244;7.726;2022-09-09T09:12:41;97995.78;;;15.73;67.26
58467;BME280;44255;49.244;7.726;2022-09-09T09:15:17;98000.69;;;15.47;68.91
58467;BME280;44255;49.244;7.726;2022-09-09T09:17:43;97992.28;;;15.61;68.30
58467;BME280;44255;49.244;7.726;2022-09-09T09:20:14;97980.34;;;16.18;64.83
58467;BME280;44255;49.244;7.726;2022-09-09T09:22:47;97983.41;;;16.35;64.08
58467;BME280;44255;49.244;7.726;2022-09-09T09:25:22;97985.09;;;16.05;63.35
58467;BME280;44255;49.244;7.726;2022-09-09T09:30:50;97979.75;;;16.67;61.88
58467;BME280;44255;49.244;7.726;2022-09-09T09:35:42;97976.28;;;16.34;62.07
58467;BME280;44255;49.244;7.726;2022-09-09T09:38:24;97969.56;;;16.28;61.06
58467;BME280;44255;49.244;7.726;2022-09-09T09:40:54;97974.06;;;16.49;61.85
58467;BME280;44255;49.244;7.726;2022-09-09T09:43:25;97977.03;;;16.67;61.50
58467;BME280;44255;49.244;7.726;2022-09-09T09:45:51;97963.66;;;16.75;59.37
58467;BME280;44255;49.244;7.726;2022-09-09T09:48:16;97982.78;;;16.52;59.39
58467;BME280;44255;49.244;7.726;2022-09-09T09:50:58;97978.69;;;16.99;58.17
58467;BME280;44255;49.244;7.726;2022-09-09T09:53:33;97975.59;;;17.13;57.43
58467;BME280;44255;49.244;7.726;2022-09-09T09:56:08;97972.34;;;17.29;58.08
58467;BME280;44255;49.244;7.726;2022-09-09T10:01:21;97967.91;;;17.09;57.05
58467;BME280;44255;49.244;7.726;2022-09-09T10:03:51;97967.38;;;17.54;55.64
58467;BME280;44255;49.244;7.726;2022-09-09T10:06:17;97974.97;;;17.61;55.16
58467;BME280;44255;49.244;7.726;2022-09-09T10:08:46;97962.69;;;17.66;54.96
58467;BME280;44255;49.244;7.726;2022-09-09T10:13:59;97961.69;;;16.87;54.17
58467;BME280;44255;49.244;7.726;2022-09-09T10:16:38;97966.34;;;17.16;54.38
58467;BME280;44255;49.244;7.726;2022-09-09T10:19:14;97960.41;;;16.91;54.61
58467;BME280;44255;49.244;7.726;2022-09-09T10:22:02;97953.78;;;17.15;54.49
58467;BME280;44255;49.244;7.726;2022-09-09T10:30:18;97957.88;;;16.99;53.39
58467;BME280;44255;49.244;7.726;2022-09-09T10:35:35;97947.78;;;17.11;53.66
58467;BME280;44255;49.244;7.726;2022-09-09T10:38:10;97943.13;;;17.43;53.34
58467;BME280;44255;49.244;7.726;2022-09-09T10:43:39;97949.38;;;17.93;51.41
58467;BME280;44255;49.244;7.726;2022-09-09T10:49:23;97946.25;;;17.87;50.96
58467;BME280;44255;49.244;7.726;2022-09-09T10:52:07;97932.59;;;18.27;50.00
58467;BME280;44255;49.244;7.726;2022-09-09T10:57:40;97940.78;;;18.07;50.27
58467;BME280;44255;49.244;7.726;2022-09-09T11:00:24;97983.78;;;16.82;56.15
58467;BME280;44255;49.244;7.726;2022-09-09T11:03:02;98016.78;;;14.70;77.85
58467;BME280;44255;49.244;7.726;2022-09-09T11:05:42;97981.16;;;15.11;77.21
58467;BME280;44255;49.244;7.726;2022-09-09T11:08:13;97976.41;;;15.68;75.52
58467;BME280;44255;49.244;7.726;2022-09-09T11:10:55;97977.00;;;15.72;73.18
58467;BME280;44255;49.244;7.726;2022-09-09T11:18:38;97959.75;;;16.06;74.18
58467;BME280;44255;49.244;7.726;2022-09-09T11:21:17;97952.69;;;16.14;75.73
58467;BME280;44255;49.244;7.726;2022-09-09T11:26:30;97949.09;;;16.35;75.97
58467;BME280;44255;49.244;7.726;2022-09-09T11:29:21;97947.66;;;16.31;75.35
58467;BME280;44255;49.244;7.726;2022-09-09T11:40:27;97954.25;;;16.48;73.95
58467;BME280;44255;49.244;7.726;2022-09-09T11:43:15;97952.59;;;16.57;72.54
58467;BME280;44255;49.244;7.726;2022-09-09T11:45:51;97945.06;;;17.11;71.24
58467;BME280;44255;49.244;7.726;2022-09-09T11:48:34;97948.50;;;17.23;70.07
58467;BME280;44255;49.244;7.726;2022-09-09T11:51:08;97938.00;;;17.50;70.56
58467;BME280;44255;49.244;7.726;2022-09-09T11:53:35;97930.69;;;17.30;70.24
58467;BME280;44255;49.244;7.726;2022-09-09T11:56:11;97940.34;;;17.03;67.43
58467;BME280;44255;49.244;7.726;2022-09-09T11:58:42;97934.16;;;16.72;66.03
58467;BME280;44255;49.244;7.726;2022-09-09T12:04:05;97937.22;;;16.57;62.67
58467;BME280;44255;49.244;7.726;2022-09-09T12:06:32;97948.81;;;16.38;61.91
58467;BME280;44255;49.244;7.726;2022-09-09T12:09:07;97947.47;;;16.64;61.77
58467;BME280;44255;49.244;7.726;2022-09-09T12:11:33;97960.75;;;17.08;61.47
58467;BME280;44255;49.244;7.726;2022-09-09T12:14:00;97960.06;;;17.25;61.09
58467;BME280;44255;49.244;7.726;2022-09-09T12:16:33;97953.19;;;17.01;58.89
58467;BME280;44255;49.244;7.726;2022-09-09T12:19:19;97956.91;;;17.10;62.69
58467;BME280;44255;49.244;7.726;2022-09-09T12:22:07;97964.88;;;17.02;58.78
58467;BME280;44255;49.244;7.726;2022-09-09T12:24:45;97959.03;;;17.07;59.61
58467;BME280;44255;49.244;7.726;2022-09-09T12:30:35;97951.03;;;18.33;52.97
58467;BME280;44255;49.244;7.726;2022-09-09T12:33:12;97943.59;;;18.35;50.88
58467;BME280;44255;49.244;7.726;2022-09-09T12:35:38;97944.28;;;18.37;51.59
58467;BME280;44255;49.244;7.726;2022-09-09T12:38:06;97950.09;;;17.95;51.44
58467;BME280;44255;49.244;7.726;2022-09-09T12:40:36;97948.13;;;17.87;50.73
58467;BME280;44255;49.244;7.726;2022-09-09T12:43:17;97939.09;;;18.54;48.70
58467;BME280;44255;49.244;7.726;2022-09-09T12:45:42;97927.53;;;18.80;49.05
58467;BME280;44255;49.244;7.726;2022-09-09T12:48:09;97938.16;;;18.35;48.19
58467;BME280;44255;49.244;7.726;2022-09-09T12:50:46;97918.19;;;18.64;48.56
58467;BME280;44255;49.244;7.726;2022-09-09T12:53:23;97918.94;;;18.56;49.35
58467;BME280;44255;49.244;7.726;2022-09-09T12:56:02;97914.19;;;18.21;49.72
58467;BME280;44255;49.244;7.726;2022-09-09T12:58:30;97915.28;;;18.66;48.96
58467;BME280;44255;49.244;7.726;2022-09-09T13:01:01;97909.13;;;18.36;49.52
58467;BME280;44255;49.244;7.726;2022-09-09T13:03:29;97903.19;;;18.60;49.66
58467;BME280;44255;49.244;7.726;2022-09-09T13:05:58;97901.25;;;18.42;49.41
58467;BME280;44255;49.244;7.726;2022-09-09T13:08:27;97906.75;;;18.61;49.39
58467;BME280;44255;49.244;7.726;2022-09-09T13:10:59;97904.78;;;18.53;50.21
58467;BME280;44255;49.244;7.726;2022-09-09T13:13:36;97901.69;;;19.40;47.39
58467;BME280;44255;49.244;7.726;2022-09-09T13:16:03;97893.72;;;20.09;44.90
58467;BME280;44255;49.244;7.726;2022-09-09T13:18:31;97903.53;;;19.76;46.28
58467;BME280;44255;49.244;7.726;2022-09-09T13:20:58;97892.66;;;19.03;47.92
58467;BME280;44255;49.244;7.726;2022-09-09T13:23:27;97899.31;;;18.25;50.52
58467;BME280;44255;49.244;7.726;2022-09-09T13:25:58;97886.28;;;18.66;49.60
58467;BME280;44255;49.244;7.726;2022-09-09T13:28:27;97896.03;;;17.73;50.64
58467;BME280;44255;49.244;7.726;2022-09-09T13:33:33;97883.88;;;18.63;49.64
58467;BME280;44255;49.244;7.726;2022-09-09T13:36:02;97888.91;;;18.58;49.97
58467;BME280;44255;49.244;7.726;2022-09-09T13:38:31;97887.63;;;18.80;50.20
58467;BME280;44255;49.244;7.726;2022-09-09T13:40:59;97883.97;;;18.06;51.31
58467;BME280;44255;49.244;7.726;2022-09-09T13:43:27;97894.00;;;17.85;51.90
58467;BME280;44255;49.244;7.726;2022-09-09T13:45:54;97896.31;;;17.80;52.42
58467;BME280;44255;49.244;7.726;2022-09-09T13:48:20;97896.97;;;18.02;52.83
58467;BME280;44255;49.244;7.726;2022-09-09T13:50:57;97884.50;;;18.09;52.16
58467;BME280;44255;49.244;7.726;2022-09-09T13:53:23;97889.22;;;18.07;52.19
58467;BME280;44255;49.244;7.726;2022-09-09T13:55:49;97889.22;;;18.07;52.30
58467;BME280;44255;49.244;7.726;2022-09-09T13:58:16;97892.13;;;17.96;52.79
58467;BME280;44255;49.244;7.726;2022-09-09T14:00:45;97899.91;;;17.61;53.43
58467;BME280;44255;49.244;7.726;2022-09-09T14:03:11;97910.56;;;17.23;55.01
58467;BME280;44255;49.244;7.726;2022-09-09T14:05:36;97913.16;;;17.35;55.02
58467;BME280;44255;49.244;7.726;2022-09-09T14:08:06;97958.56;;;16.82;56.22
58467;BME280;44255;49.244;7.726;2022-09-09T14:10:33;97958.59;;;15.66;63.05
58467;BME280;44255;49.244;7.726;2022-09-09T14:13:02;97970.75;;;14.95;62.86
58467;BME280;44255;49.244;7.726;2022-09-09T14:15:27;97982.66;;;14.58;67.40
58467;BME280;44255;49.244;7.726;2022-09-09T14:17:54;97977.88;;;14.50;68.24
58467;BME280;44255;49.244;7.726;2022-09-09T14:20:19;97988.03;;;13.76;71.12
58467;BME280;44255;49.244;7.726;2022-09-09T14:22:44;97980.56;;;14.39;69.18
58467;BME280;44255;49.244;7.726;2022-09-09T14:25:10;97985.97;;;14.50;67.77
58467;BME280;44255;49.244;7.726;2022-09-09T14:27:38;97980.81;;;14.47;67.36
58467;BME280;44255;49.244;7.726;2022-09-09T14:30:05;97972.22;;;14.53;67.08
58467;BME280;44255;49.244;7.726;2022-09-09T14:32:30;97967.47;;;15.24;65.08
58467;BME280;44255;49.244;7.726;2022-09-09T14:34:55;97963.56;;;18.44;56.11
58467;BME280;44255;49.244;7.726;2022-09-09T14:37:21;97958.41;;;23.17;42.89
58467;BME280;44255;49.244;7.726;2022-09-09T14:39:46;97961.59;;;25.49;38.19
58467;BME280;44255;49.244;7.726;2022-09-09T14:42:13;97956.69;;;27.85;34.78
58467;BME280;44255;49.244;7.726;2022-09-09T14:44:38;97953.56;;;29.21;31.25
58467;BME280;44255;49.244;7.726;2022-09-09T14:47:07;97953.47;;;28.82;33.17
58467;BME280;44255;49.244;7.726;2022-09-09T14:49:33;97944.03;;;28.17;33.38
58467;BME280;44255;49.244;7.726;2022-09-09T14:51:59;97931.75;;;27.93;35.28
58467;BME280;44255;49.244;7.726;2022-09-09T14:54:24;97934.00;;;25.36;40.66
58467;BME280;44255;49.244;7.726;2022-09-09T14:56:49;97929.47;;;24.31;43.39
58467;BME280;44255;49.244;7.726;2022-09-09T14:59:15;97930.63;;;23.75;43.30
58467;BME280;44255;49.244;7.726;2022-09-09T15:01:40;97928.50;;;21.94;49.57
58467;BME280;44255;49.244;7.726;2022-09-09T15:04:06;97924.38;;;20.81;49.17
58467;BME280;44255;49.244;7.726;2022-09-09T15:06:34;97925.50;;;22.46;45.83
58467;BME280;44255;49.244;7.726;2022-09-09T15:09:01;97912.22;;;22.34;45.71
58467;BME280;44255;49.244;7.726;2022-09-09T15:11:29;97909.16;;;20.62;52.85
58467;BME280;44255;49.244;7.726;2022-09-09T15:13:56;97918.06;;;19.84;53.35
58467;BME280;44255;49.244;7.726;2022-09-09T15:16:23;97909.69;;;19.23;57.54
58467;BME280;44255;49.244;7.726;2022-09-09T15:18:55;97902.25;;;18.97;54.47
58467;BME280;44255;49.244;7.726;2022-09-09T15:21:24;97899.34;;;19.27;55.12
58467;BME280;44255;49.244;7.726;2022-09-09T15:23:49;97892.19;;;19.08;55.42
58467;BME280;44255;49.244;7.726;2022-09-09T15:26:16;97888.09;;;19.04;59.01
58467;BME280;44255;49.244;7.726;2022-09-09T15:28:43;97892.28;;;18.42;58.31
58467;BME280;44255;49.244;7.726;2022-09-09T15:31:19;97896.38;;;17.98;60.43
58467;BME280;44255;49.244;7.726;2022-09-09T15:33:52;97899.38;;;18.05;60.25
58467;BME280;44255;49.244;7.726;2022-09-09T15:36:23;97918.28;;;17.38;64.37
58467;BME280;44255;49.244;7.726;2022-09-09T15:38:49;97923.56;;;17.10;67.49
58467;BME280;44255;49.244;7.726;2022-09-09T15:41:15;97927.69;;;17.04;69.07
58467;BME280;44255;49.244;7.726;2022-09-09T15:43:45;97937.00;;;16.70;68.39
58467;BME280;44255;49.244;7.726;2022-09-09T15:48:43;97945.63;;;16.95;67.21
58467;BME280;44255;49.244;7.726;2022-09-09T15:51:09;97937.59;;;18.22;64.95
58467;BME280;44255;49.244;7.726;2022-09-09T15:53:36;97953.25;;;17.90;65.28
58467;BME280;44255;49.244;7.726;2022-09-09T15:56:04;97949.84;;;17.58;66.14
58467;BME280;44255;49.244;7.726;2022-09-09T15:58:31;97963.97;;;17.62;66.01
58467;BME280;44255;49.244;7.726;2022-09-09T16:01:07;97965.31;;;18.35;64.89
58467;BME280;44255;49.244;7.726;2022-09-09T16:03:37;97962.03;;;18.22;65.07
58467;BME280;44255;49.244;7.726;2022-09-09T16:06:04;97964.53;;;17.85;65.55
58467;BME280;44255;49.244;7.726;2022-09-09T16:08:38;97966.38;;;17.85;65.77
58467;BME280;44255;49.244;7.726;2022-09-09T16:11:06;97961.69;;;17.57;66.38
58467;BME280;44255;49.244;7.726;2022-09-09T16:13:36;97957.66;;;17.42;68.43
58467;BME280;44255;49.244;7.726;2022-09-09T16:16:05;97947.25;;;17.17;68.25
58467;BME280;44255;49.244;7.726;2022-09-09T16:18:42;97950.22;;;17.24;68.11
58467;BME280;44255;49.244;7.726;2022-09-09T16:21:14;97942.53;;;17.10;69.16
58467;BME280;44255;49.244;7.726;2022-09-09T16:23:39;97949.91;;;17.08;68.88
58467;BME280;44255;49.244;7.726;2022-09-09T16:26:05;97945.41;;;16.67;69.63
58467;BME280;44255;49.244;7.726;2022-09-09T16:28:30;97934.50;;;16.88;69.54
58467;BME280;44255;49.244;7.726;2022-09-09T16:30:56;97929.69;;;17.02;68.52
58467;BME280;44255;49.244;7.726;2022-09-09T16:33:23;97917.03;;;16.71;70.01
58467;BME280;44255;49.244;7.726;2022-09-09T16:35:48;97918.19;;;16.69;68.72
58467;BME280;44255;49.244;7.726;2022-09-09T16:38:14;97928.16;;;16.68;70.32
58467;BME280;44255;49.244;7.726;2022-09-09T16:40:39;97936.88;;;16.72;68.65
58467;BME280;44255;49.244;7.726;2022-09-09T16:43:06;97947.88;;;16.49;69.31
58467;BME280;44255;49.244;7.726;2022-09-09T16:45:32;97951.44;;;16.50;70.35
58467;BME280;44255;49.244;7.726;2022-09-09T16:47:58;97956.13;;;16.48;68.54
58467;BME280;44255;49.244;7.726;2022-09-09T16:50:23;97966.03;;;16.37;69.32
58467;BME280;44255;49.244;7.726;2022-09-09T16:52:48;97967.53;;;16.20;70.41
58467;BME280;44255;49.244;7.726;2022-09-09T16:55:13;97971.34;;;16.17;71.25
58467;BME280;44255;49.244;7.726;2022-09-09T16:57:39;97971.06;;;16.21;71.39
58467;BME280;44255;49.244;7.726;2022-09-09T17:00:04;97982.66;;;15.80;71.45
58467;BME280;44255;49.244;7.726;2022-09-09T17:02:32;97983.91;;;15.97;71.44
58467;BME280;44255;49.244;7.726;2022-09-09T17:04:57;97980.94;;;16.00;72.11
58467;BME280;44255;49.244;7.726;2022-09-09T17:07:22;97978.03;;;15.92;72.43
58467;BME280;44255;49.244;7.726;2022-09-09T17:09:48;97971.56;;;15.83;72.32
58467;BME280;44255;49.244;7.726;2022-09-09T17:12:13;97987.06;;;15.81;71.80
58467;BME280;44255;49.244;7.726;2022-09-09T17:14:38;98011.56;;;15.24;72.37
58467;BME280;44255;49.244;7.726;2022-09-09T17:17:04;98018.38;;;14.96;70.80
58467;BME280;44255;49.244;7.726;2022-09-09T17:19:30;98018.50;;;15.06;68.16
58467;BME280;44255;49.244;7.726;2022-09-09T17:21:55;98012.47;;;15.57;67.91
58467;BME280;44255;49.244;7.726;2022-09-09T17:24:22;98056.59;;;15.79;64.52
58467;BME280;44255;49.244;7.726;2022-09-09T17:26:48;98094.41;;;14.67;61.65
58467;BME280;44255;49.244;7.726;2022-09-09T17:29:13;98088.16;;;13.83;64.67
58467;BME280;44255;49.244;7.726;2022-09-09T17:31:38;98077.31;;;13.47;73.52
58467;BME280;44255;49.244;7.726;2022-09-09T17:34:05;98061.13;;;13.72;72.70
58467;BME280;44255;49.244;7.726;2022-09-09T17:36:33;98053.72;;;13.62;71.27
58467;BME280;44255;49.244;7.726;2022-09-09T17:39:00;98047.09;;;13.80;73.98
58467;BME280;44255;49.244;7.726;2022-09-09T17:41:28;98040.47;;;13.84;74.46
58467;BME280;44255;49.244;7.726;2022-09-09T17:43:54;98030.34;;;13.63;75.02
58467;BME280;44255;49.244;7.726;2022-09-09T17:46:31;98028.34;;;13.54;75.39
58467;BME280;44255;49.244;7.726;2022-09-09T17:49:04;98033.63;;;13.55;75.98
58467;BME280;44255;49.244;7.726;2022-09-09T17:51:31;98039.25;;;13.52;77.02
58467;BME280;44255;49.244;7.726;2022-09-09T17:54:08;98042.19;;;13.49;76.26